Time;durP1;ratioP1;P1;durP2;ratioP2;P2;SDS_P1;SDS_P2;PMS_P1;PMS_P2;Temp;Humidity;BMP_temperature;BMP_pressure;BME280_temperature;BME280_humidity;BME280_pressure;Samples;Min_cycle;Max_cycle;Signal;HPM_P1;HPM_P2
2023/04/24 00:00:17;;;;;;;15.40;7.35;;;12.50;56.30;;;;;;4974493;28;20025;-79
2023/04/24 00:02:47;;;;;;;19.67;8.13;;;12.50;56.40;;;;;;4974922;28;20480;-78
2023/04/24 00:05:17;;;;;;;15.68;8.82;;;12.50;56.50;;;;;;4964799;28;20307;-78
2023/04/24 00:07:44;;;;;;;14.45;7.43;;;12.40;56.70;;;;;;4975572;28;20023;-80
2023/04/24 00:10:11;;;;;;;19.48;7.65;;;12.50;56.50;;;;;;4980952;28;20034;-79
2023/04/24 00:12:37;;;;;;;13.63;6.30;;;12.40;56.40;;;;;;4975480;28;20036;-81
2023/04/24 00:15:05;;;;;;;18.08;7.38;;;12.40;56.30;;;;;;4975070;28;20019;-79
2023/04/24 00:17:31;;;;;;;20.00;7.38;;;12.40;56.20;;;;;;4974502;28;20019;-79
2023/04/24 00:19:59;;;;;;;12.73;6.78;;;12.30;56.20;;;;;;4974802;28;20030;-79
2023/04/24 00:22:26;;;;;;;15.10;7.78;;;12.30;56.40;;;;;;4974471;28;20027;-78
2023/04/24 00:24:52;;;;;;;14.68;7.90;;;12.30;56.70;;;;;;4973332;28;20027;-80
2023/04/24 00:27:17;;;;;;;14.07;8.25;;;12.30;57.60;;;;;;4974315;28;20045;-78
2023/04/24 00:29:43;;;;;;;13.60;7.70;;;12.30;57.30;;;;;;4974099;28;20095;-80
2023/04/24 00:32:09;;;;;;;19.63;8.63;;;12.20;57.50;;;;;;4974869;28;20022;-80
2023/04/24 00:34:35;;;;;;;18.42;7.47;;;12.20;57.50;;;;;;4974087;28;20514;-76
2023/04/24 00:37:01;;;;;;;20.33;8.68;;;12.20;57.70;;;;;;4987161;28;20080;-79
2023/04/24 00:39:26;;;;;;;16.30;7.53;;;12.10;57.80;;;;;;4976665;28;20094;-79
2023/04/24 00:41:53;;;;;;;20.80;8.10;;;12.10;57.80;;;;;;4977316;28;20018;-80
2023/04/24 00:44:19;;;;;;;14.98;8.07;;;12.10;58.50;;;;;;4988770;28;20084;-80
2023/04/24 00:46:47;;;;;;;16.80;7.10;;;12.10;58.00;;;;;;4975034;28;20026;-79
2023/04/24 00:49:13;;;;;;;17.80;7.50;;;12.10;57.70;;;;;;4974348;28;20031;-79
2023/04/24 00:51:40;;;;;;;16.08;7.47;;;12.10;57.60;;;;;;4974054;28;20174;-78
2023/04/24 00:54:06;;;;;;;16.55;8.23;;;12.10;57.80;;;;;;4972942;28;20031;-80
2023/04/24 00:56:32;;;;;;;15.38;7.50;;;12.10;57.90;;;;;;4987545;28;20391;-79
2023/04/24 00:58:59;;;;;;;19.65;7.78;;;12.10;57.90;;;;;;4977942;28;20022;-79
2023/04/24 01:01:24;;;;;;;18.15;7.85;;;12.00;58.00;;;;;;4973968;28;20045;-79
2023/04/24 01:03:51;;;;;;;14.18;7.78;;;12.00;58.10;;;;;;4973629;28;20027;-80
2023/04/24 01:06:18;;;;;;;16.15;7.55;;;12.00;57.90;;;;;;4972604;28;20055;-80
2023/04/24 01:08:46;;;;;;;16.02;8.80;;;12.00;58.10;;;;;;4973880;28;20107;-80
2023/04/24 01:11:12;;;;;;;19.40;7.97;;;12.00;57.90;;;;;;4974178;28;20034;-79
2023/04/24 01:13:39;;;;;;;19.25;9.65;;;11.90;58.10;;;;;;4975019;28;20023;-79
2023/04/24 01:16:05;;;;;;;22.67;8.80;;;11.90;57.10;;;;;;4983062;28;20054;-80
2023/04/24 01:18:32;;;;;;;16.75;7.90;;;12.00;58.40;;;;;;4986598;28;20022;-78
2023/04/24 01:20:59;;;;;;;15.10;8.25;;;11.90;58.30;;;;;;4981666;28;20015;-78
2023/04/24 01:23:25;;;;;;;18.52;8.30;;;11.90;58.40;;;;;;4982003;28;20035;-78
2023/04/24 01:25:52;;;;;;;23.97;8.63;;;11.90;58.60;;;;;;4974798;28;20042;-80
2023/04/24 01:28:18;;;;;;;19.92;8.48;;;11.80;58.80;;;;;;4960312;28;20027;-77
2023/04/24 01:30:45;;;;;;;20.20;9.88;;;11.80;58.80;;;;;;4975555;28;20030;-80
2023/04/24 01:33:10;;;;;;;25.55;10.57;;;11.80;58.80;;;;;;4974532;28;20019;-79
2023/04/24 01:35:37;;;;;;;19.17;9.50;;;11.80;57.40;;;;;;4976284;28;20027;-79
2023/04/24 01:38:04;;;;;;;27.08;9.07;;;11.80;58.10;;;;;;4975042;28;20030;-78
2023/04/24 01:40:30;;;;;;;22.27;9.50;;;11.80;58.60;;;;;;4974399;28;20459;-79
2023/04/24 01:42:58;;;;;;;17.05;8.90;;;11.80;58.80;;;;;;4973966;28;20023;-79
2023/04/24 01:45:24;;;;;;;24.70;10.55;;;11.70;58.50;;;;;;4973071;28;20492;-78
2023/04/24 01:47:50;;;;;;;28.83;10.30;;;11.70;58.20;;;;;;4971967;28;20046;-80
2023/04/24 01:50:15;;;;;;;21.52;9.85;;;11.70;57.90;;;;;;4973368;28;20388;-79
2023/04/24 01:52:41;;;;;;;19.83;9.88;;;11.70;58.40;;;;;;4972221;28;20027;-80
2023/04/24 01:55:08;;;;;;;22.17;10.00;;;11.70;58.70;;;;;;4971921;28;20019;-80
2023/04/24 01:57:35;;;;;;;21.67;10.48;;;11.70;58.90;;;;;;4971613;28;20029;-80
2023/04/24 02:00:03;;;;;;;23.85;10.73;;;11.70;58.90;;;;;;4972030;28;20054;-80
2023/04/24 02:02:29;;;;;;;22.90;10.93;;;11.70;59.00;;;;;;4974824;28;20023;-79
2023/04/24 02:04:56;;;;;;;22.63;11.98;;;11.70;59.20;;;;;;4973884;28;20766;-80
2023/04/24 02:07:22;;;;;;;24.30;11.90;;;11.60;59.20;;;;;;4974160;28;20030;-78
2023/04/24 02:09:48;;;;;;;28.95;12.77;;;11.60;59.30;;;;;;4976652;28;20023;-80
2023/04/24 02:12:17;;;;;;;18.77;12.25;;;11.60;59.30;;;;;;4977227;28;20326;-80
2023/04/24 02:14:43;;;;;;;30.38;12.07;;;11.60;59.50;;;;;;4977428;28;20027;-78
2023/04/24 02:17:09;;;;;;;27.13;12.35;;;11.60;59.60;;;;;;4977520;28;20412;-79
2023/04/24 02:19:35;;;;;;;23.48;12.20;;;11.60;59.90;;;;;;4977324;28;20031;-78
2023/04/24 02:22:01;;;;;;;22.40;11.63;;;11.60;59.80;;;;;;4979954;28;20027;-79
2023/04/24 02:24:27;;;;;;;24.58;12.00;;;11.60;59.90;;;;;;4980974;28;20086;-79
2023/04/24 02:26:52;;;;;;;29.73;12.60;;;11.60;60.30;;;;;;4960103;28;20023;-79
2023/04/24 02:29:18;;;;;;;33.97;13.80;;;11.60;60.30;;;;;;4980969;28;20034;-78
2023/04/24 02:31:44;;;;;;;36.83;15.65;;;11.60;60.40;;;;;;4968852;28;20018;-81
2023/04/24 02:34:10;;;;;;;35.00;13.50;;;11.70;59.70;;;;;;4968203;28;20114;-80
2023/04/24 02:36:36;;;;;;;39.85;14.95;;;11.70;59.80;;;;;;4979427;28;20026;-79
2023/04/24 02:39:01;;;;;;;39.53;15.82;;;11.80;60.50;;;;;;4995826;28;20460;-79
2023/04/24 02:41:31;;;;;;;37.85;13.98;;;11.80;60.00;;;;;;4981785;28;20435;-79
2023/04/24 02:43:58;;;;;;;29.45;14.15;;;11.90;59.80;;;;;;4988479;28;20030;-78
2023/04/24 02:46:23;;;;;;;45.83;16.48;;;11.90;59.90;;;;;;4976540;28;20031;-80
2023/04/24 02:48:49;;;;;;;33.83;13.98;;;12.00;60.00;;;;;;4989698;28;20852;-80
2023/04/24 02:51:15;;;;;;;34.67;15.30;;;12.00;59.50;;;;;;4958595;28;20027;-80
2023/04/24 02:53:41;;;;;;;33.67;14.32;;;12.10;59.50;;;;;;4967572;28;20476;-82
2023/04/24 02:56:07;;;;;;;30.60;15.70;;;12.20;59.40;;;;;;4975982;28;20033;-79
2023/04/24 02:58:32;;;;;;;30.83;15.65;;;12.20;58.70;;;;;;4954218;28;20019;-80
2023/04/24 03:00:58;;;;;;;35.53;14.07;;;12.30;59.10;;;;;;4975946;28;20511;-80
2023/04/24 03:03:24;;;;;;;33.25;15.40;;;12.30;59.10;;;;;;4976240;28;20038;-79
2023/04/24 03:05:50;;;;;;;28.80;15.98;;;12.40;59.10;;;;;;4984284;28;20058;-78
2023/04/24 03:08:17;;;;;;;28.98;14.50;;;12.50;58.80;;;;;;4976887;28;20460;-79
2023/04/24 03:10:43;;;;;;;40.85;16.50;;;12.60;57.90;;;;;;4975552;28;20077;-79
2023/04/24 03:13:09;;;;;;;26.35;15.65;;;12.70;57.60;;;;;;4976506;28;20424;-79
2023/04/24 03:15:35;;;;;;;25.98;15.32;;;12.80;57.10;;;;;;4979282;28;20042;-80
2023/04/24 03:18:01;;;;;;;37.63;16.95;;;12.90;56.70;;;;;;4989047;28;20404;-80
2023/04/24 03:20:27;;;;;;;27.17;14.95;;;13.00;56.90;;;;;;4984325;28;20113;-79
2023/04/24 03:22:52;;;;;;;26.17;15.10;;;13.00;56.20;;;;;;4981336;28;20465;-80
2023/04/24 03:25:18;;;;;;;28.15;15.35;;;13.10;55.80;;;;;;4976113;28;20389;-79
2023/04/24 03:27:44;;;;;;;31.92;14.50;;;13.20;55.50;;;;;;4976530;28;20048;-81
2023/04/24 03:30:10;;;;;;;36.13;15.93;;;13.20;55.20;;;;;;4979416;28;20038;-80
2023/04/24 03:32:36;;;;;;;30.63;15.00;;;13.30;55.30;;;;;;4976788;28;20030;-78
2023/04/24 03:35:03;;;;;;;34.58;16.98;;;13.40;55.20;;;;;;4991900;28;20134;-81
2023/04/24 03:37:29;;;;;;;32.95;15.15;;;13.50;55.20;;;;;;4976216;28;20023;-79
2023/04/24 03:39:55;;;;;;;30.58;15.77;;;13.60;55.00;;;;;;4975551;28;20031;-80
2023/04/24 03:42:21;;;;;;;26.98;16.42;;;13.70;54.70;;;;;;4975510;28;20027;-79
2023/04/24 03:44:46;;;;;;;26.63;15.48;;;13.80;54.50;;;;;;4975171;28;20046;-79
2023/04/24 03:47:12;;;;;;;25.17;15.43;;;13.90;54.10;;;;;;4977555;28;20023;-79
2023/04/24 03:49:38;;;;;;;42.60;16.33;;;13.90;53.80;;;;;;4975386;28;20033;-78
2023/04/24 03:52:04;;;;;;;31.38;16.20;;;14.00;53.80;;;;;;4974612;28;20057;-80
2023/04/24 03:54:30;;;;;;;29.48;16.33;;;14.10;53.80;;;;;;4971848;28;20073;-80
2023/04/24 03:56:55;;;;;;;26.00;16.10;;;14.10;53.50;;;;;;4974823;28;20038;-79
2023/04/24 03:59:21;;;;;;;27.38;15.30;;;14.20;53.30;;;;;;4974897;28;20023;-80
2023/04/24 04:01:47;;;;;;;27.38;15.50;;;14.30;52.90;;;;;;4974504;28;20067;-79
2023/04/24 04:04:13;;;;;;;31.42;15.40;;;14.40;52.70;;;;;;4974811;28;20039;-78
2023/04/24 04:06:39;;;;;;;31.50;16.08;;;14.40;52.50;;;;;;4969596;28;20459;-80
2023/04/24 04:09:04;;;;;;;27.80;14.70;;;14.60;52.20;;;;;;4976107;28;20039;-78
2023/04/24 04:11:30;;;;;;;31.90;16.98;;;14.60;51.80;;;;;;4974737;28;20077;-79
2023/04/24 04:13:56;;;;;;;32.17;15.68;;;14.70;51.40;;;;;;4976383;28;20026;-78
2023/04/24 04:16:22;;;;;;;27.77;14.80;;;14.70;51.40;;;;;;4979061;28;20035;-80
2023/04/24 04:18:49;;;;;;;20.05;14.48;;;14.70;51.00;;;;;;4978647;28;20019;-79
2023/04/24 04:21:15;;;;;;;30.42;15.13;;;14.70;50.60;;;;;;4976568;28;20428;-80
2023/04/24 04:23:41;;;;;;;28.33;15.73;;;14.80;50.90;;;;;;4958884;28;20042;-78
2023/04/24 04:26:08;;;;;;;22.15;14.32;;;14.90;50.70;;;;;;4957032;28;20035;-80
2023/04/24 04:28:34;;;;;;;23.08;14.75;;;14.90;50.20;;;;;;4974652;28;20084;-80
2023/04/24 04:31:00;;;;;;;32.67;15.15;;;15.00;50.40;;;;;;4973788;28;20046;-78
2023/04/24 04:33:26;;;;;;;22.13;14.02;;;15.10;50.20;;;;;;4974532;28;20055;-81
2023/04/24 04:35:52;;;;;;;23.60;13.95;;;15.20;49.90;;;;;;4953424;28;20050;-80
2023/04/24 04:38:19;;;;;;;25.50;15.13;;;15.30;49.50;;;;;;4950647;28;20542;-81
2023/04/24 04:40:46;;;;;;;25.75;15.30;;;16.10;48.60;;;;;;4970069;28;20023;-80
2023/04/24 04:43:14;;;;;;;25.83;16.00;;;16.30;48.80;;;;;;4974144;28;20103;-80
2023/04/24 04:45:42;;;;;;;30.42;16.08;;;17.10;47.40;;;;;;4975457;28;20046;-83
2023/04/24 04:48:09;;;;;;;24.67;15.10;;;18.30;46.00;;;;;;4953023;28;20062;-81
2023/04/24 04:50:35;;;;;;;29.87;16.23;;;18.70;44.80;;;;;;4975837;28;20409;-83
2023/04/24 04:53:01;;;;;;;34.38;16.00;;;19.40;43.70;;;;;;4974312;28;20107;-81
2023/04/24 04:55:27;;;;;;;25.80;15.85;;;20.00;42.60;;;;;;4973414;28;20015;-82
2023/04/24 04:57:53;;;;;;;32.20;16.10;;;20.80;41.60;;;;;;4974135;28;20031;-82
2023/04/24 05:00:21;;;;;;;32.65;17.15;;;21.30;40.30;;;;;;4974113;28;20436;-80
2023/04/24 05:02:46;;;;;;;26.38;16.00;;;21.90;39.60;;;;;;4957484;28;20025;-81
2023/04/24 05:05:12;;;;;;;31.77;16.40;;;22.30;38.70;;;;;;4962542;28;20134;-80
2023/04/24 05:07:38;;;;;;;32.75;17.08;;;22.60;38.20;;;;;;4976689;28;20015;-80
2023/04/24 05:10:04;;;;;;;27.38;16.77;;;;;;;;;;4961163;28;20053;-81
2023/04/24 05:12:30;;;;;;;36.23;15.97;;;23.90;35.90;;;;;;4977945;28;20041;-80
2023/04/24 05:14:56;;;;;;;26.73;15.68;;;24.40;36.20;;;;;;4967375;28;20023;-82
2023/04/24 05:17:22;;;;;;;30.45;16.40;;;24.80;35.10;;;;;;4974092;28;20027;-82
2023/04/24 05:19:48;;;;;;;30.50;14.90;;;25.20;34.40;;;;;;4959598;28;20015;-80
2023/04/24 05:22:13;;;;;;;37.15;15.60;;;25.70;34.00;;;;;;4968668;28;20440;-80
2023/04/24 05:24:39;;;;;;;31.83;15.68;;;26.40;33.80;;;;;;4975162;28;20042;-79
2023/04/24 05:27:05;;;;;;;29.40;15.07;;;26.90;33.30;;;;;;4975264;28;20039;-80
2023/04/24 05:29:32;;;;;;;25.63;15.65;;;27.10;32.70;;;;;;4963340;28;20110;-78
2023/04/24 05:31:58;;;;;;;;;;;27.50;32.50;;;;;;4972231;28;20023;-78
2023/04/24 05:34:24;;;;;;;23.87;12.93;;;27.80;32.70;;;;;;4966996;28;19925;-78
2023/04/24 05:36:51;;;;;;;23.92;12.40;;;27.70;30.90;;;;;;4958502;28;20019;-79
2023/04/24 05:39:17;;;;;;;26.77;14.05;;;27.30;30.80;;;;;;4968458;28;20026;-82
2023/04/24 05:41:43;;;;;;;28.83;12.20;;;27.40;31.60;;;;;;4962869;28;20039;-81
2023/04/24 05:44:09;;;;;;;21.05;13.48;;;28.10;31.10;;;;;;4969203;28;20027;-79
2023/04/24 05:46:35;;;;;;;29.05;13.75;;;28.60;30.40;;;;;;4964754;28;20038;-80
2023/04/24 05:49:02;;;;;;;32.72;16.52;;;29.30;30.30;;;;;;4949573;28;20035;-79
2023/04/24 05:51:28;;;;;;;28.50;13.15;;;30.20;30.20;;;;;;4984051;28;20023;-80
2023/04/24 05:53:54;;;;;;;25.08;12.35;;;30.50;29.00;;;;;;4984647;28;20062;-78
2023/04/24 05:56:20;;;;;;;31.57;14.77;;;31.00;29.90;;;;;;4980971;28;20034;-79
2023/04/24 05:58:46;;;;;;;28.83;12.27;;;31.70;29.10;;;;;;4976275;28;20256;-78
2023/04/24 06:01:16;;;;;;;31.83;12.00;;;32.20;29.00;;;;;;4975985;28;20029;-78
2023/04/24 06:03:42;;;;;;;60.75;17.02;;;32.70;29.00;;;;;;4976192;28;20276;-79
2023/04/24 06:06:08;;;;;;;20.17;10.10;;;33.20;28.20;;;;;;4974768;28;20068;-78
2023/04/24 06:08:35;;;;;;;20.90;11.00;;;33.00;27.20;;;;;;4974091;28;20480;-77
2023/04/24 06:11:01;;;;;;;62.40;15.38;;;33.00;27.20;;;;;;4971724;28;20015;-76
2023/04/24 06:13:26;;;;;;;26.97;10.07;;;33.00;27.30;;;;;;4976535;28;20031;-77
2023/04/24 06:15:53;;;;;;;23.97;9.90;;;33.70;27.30;;;;;;4954772;28;20030;-76
2023/04/24 06:18:19;;;;;;;23.50;10.35;;;34.20;27.80;;;;;;4974844;28;20026;-76
2023/04/24 06:20:47;;;;;;;31.60;9.82;;;34.00;26.40;;;;;;4973004;28;20042;-78
2023/04/24 06:23:13;;;;;;;26.25;9.73;;;33.70;26.60;;;;;;4976205;28;20023;-79
2023/04/24 06:25:39;;;;;;;17.37;9.07;;;;;;;;;;4959335;28;20041;-77
2023/04/24 06:28:05;;;;;;;20.92;9.13;;;34.10;26.10;;;;;;4976957;28;20029;-77
2023/04/24 06:30:31;;;;;;;22.52;10.95;;;34.60;26.40;;;;;;4959690;28;20038;-79
2023/04/24 06:32:57;;;;;;;23.38;11.25;;;35.20;26.20;;;;;;4976631;28;20030;-76
2023/04/24 06:35:23;;;;;;;18.93;11.17;;;35.10;26.20;;;;;;4964446;28;20399;-77
2023/04/24 06:37:49;;;;;;;27.03;10.27;;;35.50;25.90;;;;;;4970210;28;20072;-79
2023/04/24 06:40:15;;;;;;;29.00;8.10;;;35.80;26.20;;;;;;4965771;28;20094;-77
2023/04/24 06:42:41;;;;;;;11.63;6.27;;;35.80;25.20;;;;;;4969598;28;20025;-77
2023/04/24 06:45:07;;;;;;;10.27;6.03;;;35.90;25.50;;;;;;4966989;28;20027;-79
2023/04/24 06:47:33;;;;;;;10.40;5.55;;;35.40;24.90;;;;;;4967241;28;20253;-79
2023/04/24 06:49:59;;;;;;;13.20;6.17;;;35.30;24.90;;;;;;4976866;28;20035;-78
2023/04/24 06:52:24;;;;;;;10.25;5.80;;;35.30;24.80;;;;;;4965378;28;20119;-79
2023/04/24 06:54:50;;;;;;;8.47;5.70;;;34.60;24.60;;;;;;4968626;28;20451;-79
2023/04/24 06:57:17;;;;;;;15.70;5.93;;;33.60;24.90;;;;;;4963848;28;20098;-77
2023/04/24 06:59:43;;;;;;;7.57;5.68;;;33.20;25.20;;;;;;4966316;28;20034;-78
2023/04/24 07:02:09;;;;;;;8.93;5.63;;;33.30;25.30;;;;;;4966533;28;20019;-79
2023/04/24 07:04:35;;;;;;;9.33;5.63;;;33.60;25.40;;;;;;4965290;28;20086;-79
2023/04/24 07:07:02;;;;;;;8.57;5.40;;;34.60;25.20;;;;;;4962983;28;20477;-76
2023/04/24 07:09:28;;;;;;;8.63;5.15;;;35.30;25.00;;;;;;4957623;28;20041;-79
2023/04/24 07:11:56;;;;;;;6.30;4.90;;;35.00;24.50;;;;;;4969485;28;20027;-77
2023/04/24 07:14:22;;;;;;;13.25;5.57;;;34.20;24.80;;;;;;4971492;28;20261;-80
2023/04/24 07:16:49;;;;;;;12.15;4.88;;;34.30;24.70;;;;;;4973009;28;20022;-77
2023/04/24 07:19:15;;;;;;;8.80;4.85;;;33.60;25.00;;;;;;4971422;28;20039;-78
2023/04/24 07:21:41;;;;;;;18.45;6.60;;;34.20;25.00;;;;;;4968694;28;20067;-77
2023/04/24 07:24:10;;;;;;;11.25;5.75;;;35.20;24.80;;;;;;4975730;28;20034;-80
2023/04/24 07:26:37;;;;;;;5.53;5.00;;;35.80;24.50;;;;;;4973224;28;20038;-80
2023/04/24 07:29:03;;;;;;;9.40;6.18;;;35.40;24.20;;;;;;4968268;28;20023;-80
2023/04/24 07:31:29;;;;;;;8.82;5.25;;;35.40;24.70;;;;;;4959682;28;20038;-80
2023/04/24 07:33:57;;;;;;;7.22;5.90;;;;;;;;;;4962289;28;20041;-76
2023/04/24 07:36:24;;;;;;;9.63;5.10;;;36.70;24.10;;;;;;4943447;28;20027;-78
2023/04/24 07:38:50;;;;;;;5.35;4.60;;;37.10;23.90;;;;;;4959073;28;20031;-79
2023/04/24 07:41:16;;;;;;;7.68;5.18;;;36.80;23.80;;;;;;4962086;28;20030;-78
2023/04/24 07:43:42;;;;;;;7.07;5.40;;;36.80;23.80;;;;;;4959932;28;20352;-78
2023/04/24 07:46:10;;;;;;;10.50;6.07;;;36.80;23.80;;;;;;4960937;28;20098;-80
2023/04/24 07:48:37;;;;;;;9.90;5.20;;;37.20;24.00;;;;;;4953670;28;20061;-79
2023/04/24 07:51:03;;;;;;;11.00;5.60;;;36.80;23.70;;;;;;4959007;28;20031;-79
2023/04/24 07:53:29;;;;;;;8.25;5.80;;;36.60;24.00;;;;;;4965586;28;20082;-78
2023/04/24 07:55:56;;;;;;;9.98;4.88;;;37.50;24.00;;;;;;4971906;28;20483;-76
2023/04/24 07:58:21;;;;;;;9.15;4.55;;;37.80;24.10;;;;;;4970901;28;20026;-78
2023/04/24 08:00:47;;;;;;;11.43;5.15;;;38.00;23.60;;;;;;4951875;28;20041;-81
2023/04/24 08:03:14;;;;;;;8.82;5.72;;;38.40;23.60;;;;;;4971206;28;20113;-79
2023/04/24 08:05:42;;;;;;;5.43;4.00;;;38.80;23.60;;;;;;4970738;28;20055;-78
2023/04/24 08:08:08;;;;;;;7.50;5.18;;;38.80;23.10;;;;;;4968443;28;20114;-76
2023/04/24 08:10:34;;;;;;;5.70;5.03;;;38.00;23.20;;;;;;4971650;28;20031;-79
2023/04/24 08:13:00;;;;;;;7.70;4.80;;;38.40;23.40;;;;;;4960101;28;20031;-78
2023/04/24 08:15:27;;;;;;;8.10;4.95;;;38.80;23.20;;;;;;4971725;28;20026;-76
2023/04/24 08:17:53;;;;;;;5.68;4.72;;;37.90;23.20;;;;;;4967961;28;20388;-78
2023/04/24 08:20:19;;;;;;;9.05;4.97;;;37.50;23.50;;;;;;4972138;28;20029;-75
2023/04/24 08:22:47;;;;;;;7.70;5.20;;;36.50;23.50;;;;;;4973228;28;20035;-80
2023/04/24 08:25:13;;;;;;;7.00;5.45;;;35.60;23.80;;;;;;4967813;28;20121;-78
2023/04/24 08:27:38;;;;;;;8.98;5.18;;;35.30;24.30;;;;;;4964566;28;20065;-77
2023/04/24 08:30:06;;;;;;;6.63;4.50;;;36.00;24.10;;;;;;4970202;28;20043;-79
2023/04/24 08:32:32;;;;;;;6.90;5.55;;;36.70;23.80;;;;;;4958140;28;20118;-79
2023/04/24 08:34:58;;;;;;;7.05;4.70;;;37.30;24.00;;;;;;4975600;28;20074;-80
2023/04/24 08:37:27;;;;;;;6.10;4.85;;;37.50;23.60;;;;;;4974425;28;20035;-77
2023/04/24 08:39:53;;;;;;;5.95;4.05;;;37.80;23.60;;;;;;4973407;28;20157;-79
2023/04/24 08:42:20;;;;;;;5.32;4.35;;;37.40;23.40;;;;;;4957220;28;20026;-76
2023/04/24 08:44:48;;;;;;;8.57;4.70;;;36.90;23.60;;;;;;4951413;28;20042;-80
2023/04/24 08:47:15;;;;;;;8.55;4.93;;;37.00;23.50;;;;;;4956476;28;20519;-79
2023/04/24 08:49:42;;;;;;;7.85;5.30;;;35.90;24.00;;;;;;4973408;28;20070;-82
2023/04/24 08:52:09;;;;;;;6.40;4.85;;;36.30;24.10;;;;;;4970446;28;20035;-80
2023/04/24 08:54:35;;;;;;;;;;;36.40;23.60;;;;;;4971613;28;20048;-79
2023/04/24 08:57:03;;;;;;;8.52;4.88;;;35.20;24.00;;;;;;4968904;28;19907;-78
2023/04/24 08:59:30;;;;;;;11.85;5.38;;;33.70;24.30;;;;;;4961983;28;20149;-79
2023/04/24 09:01:57;;;;;;;7.18;5.35;;;33.00;24.70;;;;;;4969224;28;20030;-80
2023/04/24 09:04:27;;;;;;;9.75;4.88;;;33.50;24.90;;;;;;4969626;28;20126;-78
2023/04/24 09:06:56;;;;;;;6.38;5.30;;;34.90;24.60;;;;;;4970404;28;20019;-78
2023/04/24 09:09:26;;;;;;;9.93;4.70;;;36.10;24.30;;;;;;4970294;28;20566;-79
2023/04/24 09:11:55;;;;;;;5.75;4.55;;;37.40;23.80;;;;;;4965621;28;20538;-79
2023/04/24 09:14:21;;;;;;;8.50;5.22;;;36.50;23.50;;;;;;4960664;28;20110;-80
2023/04/24 09:16:48;;;;;;;13.77;6.57;;;36.10;23.90;;;;;;4964460;28;20046;-81
2023/04/24 09:19:14;;;;;;;9.95;6.47;;;36.10;23.80;;;;;;4965410;28;20502;-78
2023/04/24 09:21:41;;;;;;;10.52;6.47;;;35.70;23.70;;;;;;4970551;28;20075;-82
2023/04/24 09:24:17;;;;;;;11.05;7.85;;;33.90;23.90;;;;;;4975714;28;20027;-78
2023/04/24 09:26:44;;;;;;;7.10;5.65;;;31.70;24.80;;;;;;4975459;28;20023;-79
2023/04/24 09:29:15;;;;;;;;;;;30.00;25.40;;;;;;4974534;28;20023;-79
2023/04/24 09:31:41;;;;;;;9.32;6.82;;;28.90;25.50;;;;;;4980221;28;19913;-80
2023/04/24 09:34:07;;;;;;;10.90;6.47;;;28.00;26.50;;;;;;4959414;28;20396;-78
2023/04/24 09:36:38;;;;;;;12.00;7.88;;;27.70;26.90;;;;;;4973409;28;20023;-79
2023/04/24 09:39:11;;;;;;;10.82;6.93;;;27.50;27.00;;;;;;4971574;28;20517;-79
2023/04/24 09:41:50;;;;;;;9.38;5.90;;;27.40;27.00;;;;;;4967880;28;20034;-79
2023/04/24 09:44:22;;;;;;;7.15;6.20;;;27.30;27.00;;;;;;4968630;28;20039;-83
2023/04/24 09:47:10;;;;;;;10.07;6.13;;;28.00;27.40;;;;;;4966995;28;20027;-81
2023/04/24 09:49:38;;;;;;;9.02;5.45;;;30.70;27.00;;;;;;4961282;28;20022;-80
2023/04/24 09:52:10;;;;;;;7.35;4.68;;;32.90;26.00;;;;;;4964241;28;20050;-78
2023/04/24 09:54:36;;;;;;;10.15;5.20;;;34.70;24.80;;;;;;4960700;28;20031;-78
2023/04/24 09:57:03;;;;;;;11.10;5.38;;;;;;;;;;4965834;28;20066;-79
2023/04/24 09:59:29;;;;;;;;;;;36.20;23.60;;;;;;4967749;28;20027;-80
2023/04/24 10:01:55;;;;;;;;;;;35.50;23.90;;;;;;4967919;28;20009;-79
2023/04/24 10:04:28;;;;;;;10.77;5.55;;;32.80;24.10;;;;;;4965477;28;19966;-79
2023/04/24 10:06:57;;;;;;;7.15;5.32;;;31.00;25.10;;;;;;4968169;28;20050;-79
2023/04/24 10:09:25;;;;;;;7.63;5.45;;;29.90;25.60;;;;;;4965250;28;20027;-80
2023/04/24 10:11:53;;;;;;;9.15;5.18;;;;;;;;;;4968862;28;20014;-80
2023/04/24 10:14:23;;;;;;;9.60;5.18;;;28.90;26.00;;;;;;4963628;28;20094;-79
2023/04/24 10:16:50;;;;;;;6.75;4.95;;;27.10;26.90;;;;;;4968155;28;20019;-80
2023/04/24 10:19:18;;;;;;;11.65;6.88;;;26.80;27.30;;;;;;4965211;28;20023;-81
2023/04/24 10:21:47;;;;;;;8.18;5.63;;;27.10;27.50;;;;;;4969514;28;20068;-78
2023/04/24 10:24:17;;;;;;;7.35;5.70;;;27.60;27.10;;;;;;4972276;28;20031;-80
2023/04/24 10:26:45;;;;;;;7.85;5.10;;;27.50;27.20;;;;;;4972255;28;20357;-79
2023/04/24 10:29:13;;;;;;;8.70;6.05;;;27.10;27.10;;;;;;4967661;28;20032;-80
2023/04/24 10:31:39;;;;;;;6.93;5.07;;;26.70;27.50;;;;;;4976073;28;20023;-83
2023/04/24 10:34:06;;;;;;;8.50;5.88;;;25.90;27.60;;;;;;4958327;28;20452;-80
2023/04/24 10:36:40;;;;;;;6.35;5.25;;;25.00;28.50;;;;;;4959073;28;20484;-81
2023/04/24 10:39:10;;;;;;;11.10;6.75;;;24.30;28.80;;;;;;4976621;28;20468;-81
2023/04/24 10:41:38;;;;;;;11.15;6.63;;;23.90;29.70;;;;;;4975910;28;20101;-80
2023/04/24 10:44:13;;;;;;;10.73;7.05;;;23.80;29.70;;;;;;4947642;28;20035;-82
2023/04/24 10:46:42;;;;;;;7.78;6.07;;;23.70;29.80;;;;;;4971850;28;20027;-80
2023/04/24 10:49:08;;;;;;;9.07;7.00;;;23.30;29.70;;;;;;4966121;28;20396;-80
2023/04/24 10:51:49;;;;;;;8.93;6.72;;;23.20;30.00;;;;;;4979545;28;20033;-81
2023/04/24 10:54:40;;;;;;;6.72;4.65;;;23.30;29.70;;;;;;4971104;28;20114;-80
2023/04/24 10:57:29;;;;;;;10.77;7.05;;;22.90;29.40;;;;;;4950144;28;20042;-80
2023/04/24 11:00:15;;;;;;;8.45;6.05;;;22.70;30.10;;;;;;4946077;28;20035;-80
2023/04/24 11:02:48;;;;;;;9.38;5.95;;;23.00;30.00;;;;;;4944754;28;20082;-82
2023/04/24 11:05:16;;;;;;;11.27;5.90;;;23.10;30.00;;;;;;4978066;28;20074;-80
2023/04/24 11:08:14;;;;;;;8.43;6.07;;;23.30;30.00;;;;;;4960635;28;20079;-82
2023/04/24 11:10:46;;;;;;;9.82;5.70;;;23.30;29.90;;;;;;4960752;28;20392;-80
2023/04/24 11:13:16;;;;;;;8.63;6.63;;;23.30;29.80;;;;;;4959285;28;20055;-79
2023/04/24 11:15:44;;;;;;;8.07;5.85;;;23.10;30.10;;;;;;4944826;28;20514;-79
2023/04/24 11:18:15;;;;;;;9.43;4.65;;;23.00;30.40;;;;;;4967031;28;20046;-80
2023/04/24 11:20:45;;;;;;;8.23;5.30;;;22.80;30.00;;;;;;4963156;28;20018;-79
2023/04/24 11:23:14;;;;;;;6.65;5.35;;;22.80;30.20;;;;;;4975317;28;20064;-81
2023/04/24 11:25:41;;;;;;;12.90;5.57;;;22.80;30.00;;;;;;4960028;28;20455;-83
2023/04/24 11:28:07;;;;;;;;;;;22.70;30.30;;;;;;4961524;28;20075;-81
2023/04/24 11:30:33;;;;;;;6.32;5.18;;;22.50;30.00;;;;;;4975712;28;20327;-82
2023/04/24 11:33:04;;;;;;;6.50;5.13;;;22.50;30.60;;;;;;4958101;28;20110;-80
2023/04/24 11:35:37;;;;;;;6.95;5.97;;;22.60;30.90;;;;;;4975987;28;20023;-82
2023/04/24 11:38:04;;;;;;;7.78;4.97;;;22.50;30.60;;;;;;4979710;28;20081;-77
2023/04/24 11:40:30;;;;;;;8.93;5.20;;;22.40;30.10;;;;;;4984085;28;20022;-77
2023/04/24 11:42:56;;;;;;;9.07;6.15;;;22.10;30.50;;;;;;4979156;28;20115;-77
2023/04/24 11:45:30;;;;;;;5.78;5.13;;;21.90;30.80;;;;;;4974799;28;20031;-77
2023/04/24 11:47:56;;;;;;;6.43;5.00;;;21.90;30.60;;;;;;4974613;28;20023;-78
2023/04/24 11:50:25;;;;;;;6.43;4.85;;;21.60;30.50;;;;;;4974662;28;20026;-78
2023/04/24 11:52:51;;;;;;;6.95;5.88;;;21.70;30.80;;;;;;4974601;28;20507;-77
2023/04/24 11:55:17;;;;;;;15.23;8.52;;;21.80;30.80;;;;;;4956681;28;20026;-78
2023/04/24 11:57:50;;;;;;;10.07;7.72;;;22.00;31.10;;;;;;4965922;28;20074;-79
2023/04/24 12:00:20;;;;;;;12.60;10.30;;;22.20;30.40;;;;;;4961217;28;20031;-80
2023/04/24 12:02:46;;;;;;;5.18;4.65;;;22.30;30.80;;;;;;4939807;28;20456;-78
2023/04/24 12:05:23;;;;;;;7.40;5.10;;;22.20;30.20;;;;;;4959477;28;20085;-77
2023/04/24 12:07:49;;;;;;;;;;;22.00;30.70;;;;;;4957982;28;20043;-76
2023/04/24 12:10:22;;;;;;;7.53;5.35;;;22.00;30.70;;;;;;4958807;28;19969;-78
2023/04/24 12:12:50;;;;;;;8.52;5.72;;;22.20;30.80;;;;;;4967162;28;20090;-77
2023/04/24 12:15:17;;;;;;;10.55;7.40;;;22.20;30.70;;;;;;4962935;28;20022;-78
2023/04/24 12:17:43;;;;;;;8.35;5.72;;;22.30;31.10;;;;;;4943285;28;20031;-79
2023/04/24 12:20:09;;;;;;;11.20;5.13;;;22.30;30.90;;;;;;4967297;28;20097;-79
2023/04/24 12:22:55;;;;;;;9.82;7.03;;;22.10;30.40;;;;;;4972328;28;20135;-76
2023/04/24 12:25:23;;;;;;;10.27;6.40;;;22.00;31.20;;;;;;4945151;28;20042;-78
2023/04/24 12:28:12;;;;;;;8.20;5.80;;;22.20;31.30;;;;;;4956794;28;20098;-76
2023/04/24 12:30:44;;;;;;;13.05;8.30;;;22.20;30.90;;;;;;4973763;28;20030;-77
2023/04/24 12:33:10;;;;;;;7.85;4.70;;;22.20;31.00;;;;;;4973371;28;20022;-77
2023/04/24 12:35:36;;;;;;;7.32;4.70;;;22.10;30.60;;;;;;4973678;28;20023;-78
2023/04/24 12:38:07;;;;;;;7.40;5.18;;;21.70;30.90;;;;;;4953296;28;20106;-78
2023/04/24 12:40:33;;;;;;;10.25;6.45;;;21.40;30.80;;;;;;4970281;28;20023;-78